PWSweather.com
Personal Weather Stations
Station Observations
SONYA
Sergiev PosadRU

Sergiev PosadRU

Lat: 56.28148651, Lon: 38.05462646

Elevation: 741

Station Type: Fine offset WH1091

Latest ConditionsUpdated 1:27:00 PM GMT+03:03 Wednesday, Feb 20, 2019
Currently Today's Max Today's Min Today's Average
Temperature 35.8°F2.1°C 35.8°F2.1°C 27.9°F-2.3°C 30.7°F-0.7°C
Dew Point 29.7°F-1.3°C 30.3°F-0.9°C 15.8°F-9.0°C 23.1°F-4.9°C
Winds 4.5 mph SE7.2 kmh SE 13.0 mph -20.9 kmh - - 5.9 mph 9.5 kmh
Wind Gusts 9.2 mph14.8 kmh 19.0 mph30.6 kmh - -
Humidity 71% 80% 42% 65%
Pressure 28.70 in971.9 mb 28.93 in979.7 mb 28.70 in971.9 mb -
Hour Temp Dew Point Humidity Winds Wind Gusts Pressure Precip Precip Rate Daily Precip Total
01:27 PM 35.8°F2.1°C 29.7°F-1.3°C 71% 4.5 mph SE7.2 kmh SE 9.2 mph14.8 kmh 28.70 in971.9 mb 0.00 in0.0 mm 0.00 in0.0 mm 0.00 in0.0 mm
01:22 PM 35.6°F2.0°C 29.5°F-1.4°C 71% 3.8 mph S6.1 kmh S 5.4 mph8.7 kmh 28.70 in971.9 mb 0.00 in0.0 mm 0.00 in0.0 mm 0.00 in0.0 mm
01:17 PM 35.8°F2.1°C 29.9°F-1.2°C 72% 3.8 mph S6.1 kmh S 5.4 mph8.7 kmh 28.71 in972.2 mb 0.00 in0.0 mm 0.00 in0.0 mm 0.00 in0.0 mm
01:12 PM 35.6°F2.0°C 29.8°F-1.2°C 72% 6.9 mph S11.1 kmh S 10.7 mph17.2 kmh 28.71 in972.2 mb 0.00 in0.0 mm 0.00 in0.0 mm 0.00 in0.0 mm
01:07 PM 35.6°F2.0°C 30.0°F-1.1°C 73% 5.4 mph S8.7 kmh S 8.3 mph13.4 kmh 28.71 in972.2 mb 0.00 in0.0 mm 0.00 in0.0 mm 0.00 in0.0 mm
01:02 PM 35.4°F1.9°C 30.1°F-1.1°C 74% 7.6 mph S12.2 kmh S 13.0 mph20.9 kmh 28.70 in971.9 mb 0.00 in0.0 mm 0.00 in0.0 mm 0.00 in0.0 mm
12:57 PM 35.2°F1.8°C 30.3°F-0.9°C 76% 5.4 mph SW8.7 kmh SW 10.7 mph17.2 kmh 28.71 in972.2 mb 0.00 in0.0 mm 0.00 in0.0 mm 0.00 in0.0 mm
12:52 PM 34.7°F1.5°C 29.8°F-1.2°C 76% 6.0 mph S9.7 kmh S 8.3 mph13.4 kmh 28.71 in972.2 mb 0.00 in0.0 mm 0.00 in0.0 mm 0.00 in0.0 mm
12:47 PM 34.5°F1.4°C 29.7°F-1.3°C 76% 8.3 mph SW13.4 kmh SW 13.0 mph20.9 kmh 28.71 in972.2 mb 0.00 in0.0 mm 0.00 in0.0 mm 0.00 in0.0 mm
12:42 PM 34.5°F1.4°C 29.9°F-1.2°C 77% 6.9 mph S11.1 kmh S 9.2 mph14.8 kmh 28.71 in972.2 mb 0.00 in0.0 mm 0.00 in0.0 mm 0.00 in0.0 mm
12:37 PM 34.3°F1.3°C 29.7°F-1.3°C 77% 9.2 mph S14.8 kmh S 10.7 mph17.2 kmh 28.71 in972.2 mb 0.00 in0.0 mm 0.00 in0.0 mm 0.00 in0.0 mm
12:32 PM 34.2°F1.2°C 29.8°F-1.2°C 78% 5.4 mph S8.7 kmh S 7.6 mph12.2 kmh 28.71 in972.2 mb 0.00 in0.0 mm 0.00 in0.0 mm 0.00 in0.0 mm
12:27 PM 34.0°F1.1°C 29.6°F-1.3°C 78% 10.7 mph S17.2 kmh S 13.6 mph21.9 kmh 28.71 in972.2 mb 0.00 in0.0 mm 0.00 in0.0 mm 0.00 in0.0 mm
12:22 PM 33.8°F1.0°C 29.4°F-1.4°C 78% 7.6 mph S12.2 kmh S 13.0 mph20.9 kmh 28.71 in972.2 mb 0.00 in0.0 mm 0.00 in0.0 mm 0.00 in0.0 mm
12:17 PM 33.6°F0.9°C 29.5°F-1.4°C 79% 5.4 mph S8.7 kmh S 7.6 mph12.2 kmh 28.71 in972.2 mb 0.00 in0.0 mm 0.00 in0.0 mm 0.00 in0.0 mm
12:12 PM 33.6°F0.9°C 29.7°F-1.3°C 80% 8.3 mph S13.4 kmh S 15.9 mph25.6 kmh 28.72 in972.6 mb 0.00 in0.0 mm 0.00 in0.0 mm 0.00 in0.0 mm
12:07 PM 33.6°F0.9°C 29.7°F-1.3°C 80% 6.0 mph SW9.7 kmh SW 8.3 mph13.4 kmh 28.71 in972.2 mb 0.00 in0.0 mm 0.00 in0.0 mm 0.00 in0.0 mm
12:02 PM 33.4°F0.8°C 29.5°F-1.4°C 80% 9.8 mph S15.8 kmh S 12.1 mph19.5 kmh 28.72 in972.6 mb 0.00 in0.0 mm 0.00 in0.0 mm 0.00 in0.0 mm
11:57 AM 33.4°F0.8°C 29.5°F-1.4°C 80% 7.6 mph NE12.2 kmh NE 15.2 mph24.5 kmh 28.71 in972.2 mb 0.00 in0.0 mm 0.00 in0.0 mm 0.00 in0.0 mm
11:52 AM 33.4°F0.8°C 29.5°F-1.4°C 80% 10.7 mph SW17.2 kmh SW 13.6 mph21.9 kmh 28.71 in972.2 mb 0.00 in0.0 mm 0.00 in0.0 mm 0.00 in0.0 mm
11:47 AM 33.3°F0.7°C 29.3°F-1.5°C 80% 8.3 mph SW13.4 kmh SW 13.0 mph20.9 kmh 28.72 in972.6 mb 0.00 in0.0 mm 0.00 in0.0 mm 0.00 in0.0 mm
11:42 AM 33.3°F0.7°C 29.3°F-1.5°C 80% 7.6 mph S12.2 kmh S 14.5 mph23.3 kmh 28.71 in972.2 mb 0.00 in0.0 mm 0.00 in0.0 mm 0.00 in0.0 mm
11:37 AM 33.1°F0.6°C 28.9°F-1.7°C 79% 6.9 mph S11.1 kmh S 9.2 mph14.8 kmh 28.72 in972.6 mb 0.00 in0.0 mm 0.00 in0.0 mm 0.00 in0.0 mm
11:32 AM 33.1°F0.6°C 28.9°F-1.7°C 79% 8.3 mph S13.4 kmh S 13.0 mph20.9 kmh 28.71 in972.2 mb 0.00 in0.0 mm 0.00 in0.0 mm 0.00 in0.0 mm
11:27 AM 33.1°F0.6°C 28.9°F-1.7°C 79% 13.0 mph S20.9 kmh S 19.0 mph30.6 kmh 28.71 in972.2 mb 0.00 in0.0 mm 0.00 in0.0 mm 0.00 in0.0 mm
11:22 AM 33.1°F0.6°C 28.7°F-1.8°C 78% 9.2 mph S14.8 kmh S 13.0 mph20.9 kmh 28.72 in972.6 mb 0.00 in0.0 mm 0.00 in0.0 mm 0.00 in0.0 mm
11:17 AM 33.1°F0.6°C 28.7°F-1.8°C 78% 6.0 mph SE9.7 kmh SE 7.6 mph12.2 kmh 28.72 in972.6 mb 0.00 in0.0 mm 0.00 in0.0 mm 0.00 in0.0 mm
11:12 AM 33.1°F0.6°C 28.7°F-1.8°C 78% 9.8 mph SE15.8 kmh SE 14.5 mph23.3 kmh 28.71 in972.2 mb 0.00 in0.0 mm 0.00 in0.0 mm 0.00 in0.0 mm
11:07 AM 32.9°F0.5°C 28.5°F-1.9°C 78% 6.9 mph SSW11.1 kmh SSW 10.7 mph17.2 kmh 28.71 in972.2 mb 0.00 in0.0 mm 0.00 in0.0 mm 0.00 in0.0 mm
11:02 AM 32.7°F0.4°C 28.4°F-2.0°C 78% 6.9 mph SE11.1 kmh SE 10.7 mph17.2 kmh 28.72 in972.6 mb 0.00 in0.0 mm 0.00 in0.0 mm 0.00 in0.0 mm
10:57 AM 32.7°F0.4°C 28.1°F-2.2°C 77% 9.2 mph S14.8 kmh S 12.1 mph19.5 kmh 28.72 in972.6 mb 0.00 in0.0 mm 0.00 in0.0 mm 0.00 in0.0 mm
10:52 AM 32.7°F0.4°C 28.1°F-2.2°C 77% 6.0 mph SW9.7 kmh SW 10.7 mph17.2 kmh 28.71 in972.2 mb 0.00 in0.0 mm 0.00 in0.0 mm 0.00 in0.0 mm
10:47 AM 32.7°F0.4°C 28.1°F-2.2°C 77% 9.2 mph S14.8 kmh S 12.1 mph19.5 kmh 28.71 in972.2 mb 0.00 in0.0 mm 0.00 in0.0 mm 0.00 in0.0 mm
10:42 AM 32.7°F0.4°C 28.1°F-2.2°C 77% 8.3 mph SW13.4 kmh SW 12.1 mph19.5 kmh 28.71 in972.2 mb 0.00 in0.0 mm 0.00 in0.0 mm 0.00 in0.0 mm
10:37 AM 32.5°F0.3°C 27.7°F-2.4°C 76% 7.6 mph S12.2 kmh S 13.6 mph21.9 kmh 28.71 in972.2 mb 0.00 in0.0 mm 0.00 in0.0 mm 0.00 in0.0 mm
10:32 AM 32.5°F0.3°C 27.7°F-2.4°C 76% 7.6 mph S12.2 kmh S 13.0 mph20.9 kmh 28.72 in972.6 mb 0.00 in0.0 mm 0.00 in0.0 mm 0.00 in0.0 mm
10:27 AM 32.4°F0.2°C 27.6°F-2.4°C 76% 5.4 mph S8.7 kmh S 9.8 mph15.8 kmh 28.72 in972.6 mb 0.00 in0.0 mm 0.00 in0.0 mm 0.00 in0.0 mm
10:22 AM 32.2°F0.1°C 27.4°F-2.6°C 76% 7.6 mph S12.2 kmh S 11.4 mph18.3 kmh 28.72 in972.6 mb 0.00 in0.0 mm 0.00 in0.0 mm 0.00 in0.0 mm
10:17 AM 32.2°F0.1°C 27.4°F-2.6°C 76% 7.6 mph S12.2 kmh S 9.2 mph14.8 kmh 28.72 in972.6 mb 0.00 in0.0 mm 0.00 in0.0 mm 0.00 in0.0 mm
10:12 AM 32.2°F0.1°C 27.4°F-2.6°C 76% 7.6 mph S12.2 kmh S 12.1 mph19.5 kmh 28.72 in972.6 mb 0.00 in0.0 mm 0.00 in0.0 mm 0.00 in0.0 mm
10:07 AM 32.0°F0.0°C 27.2°F-2.7°C 76% 6.9 mph SE11.1 kmh SE 9.2 mph14.8 kmh 28.71 in972.2 mb 0.00 in0.0 mm 0.00 in0.0 mm 0.00 in0.0 mm
10:02 AM 32.0°F0.0°C 27.0°F-2.8°C 75% 6.0 mph S9.7 kmh S 7.6 mph12.2 kmh 28.71 in972.2 mb 0.00 in0.0 mm 0.00 in0.0 mm 0.00 in0.0 mm
09:57 AM 32.0°F0.0°C 27.0°F-2.8°C 75% 8.3 mph SW13.4 kmh SW 13.0 mph20.9 kmh 28.71 in972.2 mb 0.00 in0.0 mm 0.00 in0.0 mm 0.00 in0.0 mm
09:52 AM 32.0°F0.0°C 27.0°F-2.8°C 75% 6.9 mph S11.1 kmh S 12.1 mph19.5 kmh 28.72 in972.6 mb 0.00 in0.0 mm 0.00 in0.0 mm 0.00 in0.0 mm
09:47 AM 32.0°F0.0°C 27.0°F-2.8°C 75% 7.6 mph S12.2 kmh S 10.7 mph17.2 kmh 28.72 in972.6 mb 0.00 in0.0 mm 0.00 in0.0 mm 0.00 in0.0 mm
09:42 AM 32.0°F0.0°C 26.8°F-2.9°C 74% 7.6 mph S12.2 kmh S 12.1 mph19.5 kmh 28.72 in972.6 mb 0.00 in0.0 mm 0.00 in0.0 mm 0.00 in0.0 mm
09:37 AM 32.0°F0.0°C 26.8°F-2.9°C 74% 7.6 mph S12.2 kmh S 11.4 mph18.3 kmh 28.72 in972.6 mb 0.00 in0.0 mm 0.00 in0.0 mm 0.00 in0.0 mm
09:32 AM 32.0°F0.0°C 26.8°F-2.9°C 74% 8.3 mph S13.4 kmh S 12.1 mph19.5 kmh 28.72 in972.6 mb 0.00 in0.0 mm 0.00 in0.0 mm 0.00 in0.0 mm
09:27 AM 31.8°F-0.1°C 26.8°F-2.9°C 75% 5.4 mph SE8.7 kmh SE 10.7 mph17.2 kmh 28.72 in972.6 mb 0.00 in0.0 mm 0.00 in0.0 mm 0.00 in0.0 mm
09:22 AM 31.8°F-0.1°C 26.8°F-2.9°C 75% 8.3 mph S13.4 kmh S 12.1 mph19.5 kmh 28.72 in972.6 mb 0.00 in0.0 mm 0.00 in0.0 mm 0.00 in0.0 mm
09:17 AM 31.6°F-0.2°C 26.4°F-3.1°C 74% 6.9 mph N11.1 kmh N 12.1 mph19.5 kmh 28.72 in972.6 mb 0.00 in0.0 mm 0.00 in0.0 mm 0.00 in0.0 mm
09:12 AM 31.6°F-0.2°C 26.4°F-3.1°C 74% 5.4 mph SE8.7 kmh SE 9.2 mph14.8 kmh 28.72 in972.6 mb 0.00 in0.0 mm 0.00 in0.0 mm 0.00 in0.0 mm
09:07 AM 31.6°F-0.2°C 26.4°F-3.1°C 74% 3.8 mph SE6.1 kmh SE 4.5 mph7.2 kmh 28.72 in972.6 mb 0.00 in0.0 mm 0.00 in0.0 mm 0.00 in0.0 mm
09:02 AM 31.5°F-0.3°C 26.2°F-3.2°C 74% 4.5 mph SE7.2 kmh SE 9.8 mph15.8 kmh 28.72 in972.6 mb 0.00 in0.0 mm 0.00 in0.0 mm 0.00 in0.0 mm
08:57 AM 31.3°F-0.4°C 26.1°F-3.3°C 74% 4.5 mph SE7.2 kmh SE 6.9 mph11.1 kmh 28.73 in972.9 mb 0.00 in0.0 mm 0.00 in0.0 mm 0.00 in0.0 mm
08:52 AM 31.3°F-0.4°C 26.1°F-3.3°C 74% 6.9 mph S11.1 kmh S 9.8 mph15.8 kmh 28.73 in972.9 mb 0.00 in0.0 mm 0.00 in0.0 mm 0.00 in0.0 mm
08:47 AM 31.3°F-0.4°C 26.1°F-3.3°C 74% 5.4 mph SW8.7 kmh SW 7.6 mph12.2 kmh 28.72 in972.6 mb 0.00 in0.0 mm 0.00 in0.0 mm 0.00 in0.0 mm
08:42 AM 31.1°F-0.5°C 25.9°F-3.4°C 74% 6.9 mph S11.1 kmh S 9.2 mph14.8 kmh 28.73 in972.9 mb 0.00 in0.0 mm 0.00 in0.0 mm 0.00 in0.0 mm
08:37 AM 30.9°F-0.6°C 25.7°F-3.5°C 74% 5.4 mph SE8.7 kmh SE 10.7 mph17.2 kmh 28.73 in972.9 mb 0.00 in0.0 mm 0.00 in0.0 mm 0.00 in0.0 mm
08:32 AM 30.9°F-0.6°C 25.7°F-3.5°C 74% 3.8 mph SW6.1 kmh SW 6.0 mph9.7 kmh 28.73 in972.9 mb 0.00 in0.0 mm 0.00 in0.0 mm 0.00 in0.0 mm
08:27 AM 30.7°F-0.7°C 25.3°F-3.7°C 73% 5.4 mph S8.7 kmh S 7.6 mph12.2 kmh 28.73 in972.9 mb 0.00 in0.0 mm 0.00 in0.0 mm 0.00 in0.0 mm
08:22 AM 30.7°F-0.7°C 25.3°F-3.7°C 73% 5.4 mph E8.7 kmh E 7.6 mph12.2 kmh 28.74 in973.2 mb 0.00 in0.0 mm 0.00 in0.0 mm 0.00 in0.0 mm
08:17 AM 30.6°F-0.8°C 25.2°F-3.8°C 73% 4.5 mph S7.2 kmh S 6.0 mph9.7 kmh 28.74 in973.2 mb 0.00 in0.0 mm 0.00 in0.0 mm 0.00 in0.0 mm
08:12 AM 30.6°F-0.8°C 25.2°F-3.8°C 73% 5.4 mph SE8.7 kmh SE 9.2 mph14.8 kmh 28.74 in973.2 mb 0.00 in0.0 mm 0.00 in0.0 mm 0.00 in0.0 mm
08:07 AM 30.4°F-0.9°C 25.0°F-3.9°C 73% 6.0 mph SW9.7 kmh SW 9.2 mph14.8 kmh 28.74 in973.2 mb 0.00 in0.0 mm 0.00 in0.0 mm 0.00 in0.0 mm
08:02 AM 30.4°F-0.9°C 24.7°F-4.1°C 72% 5.4 mph S8.7 kmh S 7.6 mph12.2 kmh 28.74 in973.2 mb 0.00 in0.0 mm 0.00 in0.0 mm 0.00 in0.0 mm
07:57 AM 30.4°F-0.9°C 24.7°F-4.1°C 72% 4.5 mph SW7.2 kmh SW 6.0 mph9.7 kmh 28.73 in972.9 mb 0.00 in0.0 mm 0.00 in0.0 mm 0.00 in0.0 mm
07:52 AM 30.2°F-1.0°C 24.6°F-4.1°C 72% 5.4 mph S8.7 kmh S 9.2 mph14.8 kmh 28.74 in973.2 mb 0.00 in0.0 mm 0.00 in0.0 mm 0.00 in0.0 mm
07:47 AM 30.2°F-1.0°C 24.3°F-4.3°C 71% 6.9 mph S11.1 kmh S 9.2 mph14.8 kmh 28.74 in973.2 mb 0.00 in0.0 mm 0.00 in0.0 mm 0.00 in0.0 mm
07:42 AM 30.2°F-1.0°C 24.3°F-4.3°C 71% 4.5 mph S7.2 kmh S 6.0 mph9.7 kmh 28.74 in973.2 mb 0.00 in0.0 mm 0.00 in0.0 mm 0.00 in0.0 mm
07:37 AM 30.2°F-1.0°C 24.3°F-4.3°C 71% 3.8 mph SE6.1 kmh SE 7.6 mph12.2 kmh 28.74 in973.2 mb 0.00 in0.0 mm 0.00 in0.0 mm 0.00 in0.0 mm
07:32 AM 30.2°F-1.0°C 24.3°F-4.3°C 71% 6.9 mph SE11.1 kmh SE 9.8 mph15.8 kmh 28.74 in973.2 mb 0.00 in0.0 mm 0.00 in0.0 mm 0.00 in0.0 mm
07:27 AM 30.2°F-1.0°C 24.3°F-4.3°C 71% 6.0 mph WSW9.7 kmh WSW 9.2 mph14.8 kmh 28.74 in973.2 mb 0.00 in0.0 mm 0.00 in0.0 mm 0.00 in0.0 mm
07:22 AM 30.2°F-1.0°C 24.3°F-4.3°C 71% 6.0 mph S9.7 kmh S 9.2 mph14.8 kmh 28.74 in973.2 mb 0.00 in0.0 mm 0.00 in0.0 mm 0.00 in0.0 mm
07:17 AM 30.0°F-1.1°C 24.2°F-4.3°C 71% 3.8 mph S6.1 kmh S 6.0 mph9.7 kmh 28.74 in973.2 mb 0.00 in0.0 mm 0.00 in0.0 mm 0.00 in0.0 mm
07:12 AM 30.0°F-1.1°C 24.2°F-4.3°C 71% 4.5 mph SW7.2 kmh SW 6.9 mph11.1 kmh 28.74 in973.2 mb 0.00 in0.0 mm 0.00 in0.0 mm 0.00 in0.0 mm
07:07 AM 30.0°F-1.1°C 24.2°F-4.3°C 71% 6.0 mph S9.7 kmh S 9.2 mph14.8 kmh 28.74 in973.2 mb 0.00 in0.0 mm 0.00 in0.0 mm 0.00 in0.0 mm
07:02 AM 30.0°F-1.1°C 23.9°F-4.5°C 70% 5.4 mph S8.7 kmh S 7.6 mph12.2 kmh 28.74 in973.2 mb 0.00 in0.0 mm 0.00 in0.0 mm 0.00 in0.0 mm
06:57 AM 30.0°F-1.1°C 23.9°F-4.5°C 70% 5.4 mph S8.7 kmh S 10.7 mph17.2 kmh 28.74 in973.2 mb 0.00 in0.0 mm 0.00 in0.0 mm 0.00 in0.0 mm
06:52 AM 30.0°F-1.1°C 23.9°F-4.5°C 70% 6.9 mph S11.1 kmh S 9.8 mph15.8 kmh 28.75 in973.6 mb 0.00 in0.0 mm 0.00 in0.0 mm 0.00 in0.0 mm
06:47 AM 29.8°F-1.2°C 23.5°F-4.7°C 69% 6.0 mph SE9.7 kmh SE 9.2 mph14.8 kmh 28.75 in973.6 mb 0.00 in0.0 mm 0.00 in0.0 mm 0.00 in0.0 mm
06:42 AM 29.8°F-1.2°C 23.5°F-4.7°C 69% 4.5 mph SW7.2 kmh SW 6.9 mph11.1 kmh 28.76 in973.9 mb 0.00 in0.0 mm 0.00 in0.0 mm 0.00 in0.0 mm
06:37 AM 29.8°F-1.2°C 23.5°F-4.7°C 69% 6.0 mph S9.7 kmh S 10.7 mph17.2 kmh 28.75 in973.6 mb 0.00 in0.0 mm 0.00 in0.0 mm 0.00 in0.0 mm
06:32 AM 29.8°F-1.2°C 23.5°F-4.7°C 69% 9.2 mph S14.8 kmh S 13.6 mph21.9 kmh 28.76 in973.9 mb 0.00 in0.0 mm 0.00 in0.0 mm 0.00 in0.0 mm
06:27 AM 29.8°F-1.2°C 23.3°F-4.8°C 68% 4.5 mph SW7.2 kmh SW 6.0 mph9.7 kmh 28.76 in973.9 mb 0.00 in0.0 mm 0.00 in0.0 mm 0.00 in0.0 mm
06:22 AM 29.8°F-1.2°C 23.3°F-4.8°C 68% 3.8 mph S6.1 kmh S 5.4 mph8.7 kmh 28.76 in973.9 mb 0.00 in0.0 mm 0.00 in0.0 mm 0.00 in0.0 mm
06:17 AM 29.8°F-1.2°C 23.3°F-4.8°C 68% 6.0 mph E9.7 kmh E 8.3 mph13.4 kmh 28.76 in973.9 mb 0.00 in0.0 mm 0.00 in0.0 mm 0.00 in0.0 mm
06:12 AM 29.7°F-1.3°C 23.1°F-4.9°C 68% 4.5 mph SW7.2 kmh SW 6.9 mph11.1 kmh 28.77 in974.3 mb 0.00 in0.0 mm 0.00 in0.0 mm 0.00 in0.0 mm
06:07 AM 29.7°F-1.3°C 23.1°F-4.9°C 68% 7.6 mph S12.2 kmh S 11.4 mph18.3 kmh 28.77 in974.3 mb 0.00 in0.0 mm 0.00 in0.0 mm 0.00 in0.0 mm
06:02 AM 29.7°F-1.3°C 22.9°F-5.1°C 67% 3.8 mph S6.1 kmh S 6.0 mph9.7 kmh 28.77 in974.3 mb 0.00 in0.0 mm 0.00 in0.0 mm 0.00 in0.0 mm
05:57 AM 29.7°F-1.3°C 22.9°F-5.1°C 67% 5.4 mph S8.7 kmh S 8.3 mph13.4 kmh 28.76 in973.9 mb 0.00 in0.0 mm 0.00 in0.0 mm 0.00 in0.0 mm
05:52 AM 29.3°F-1.5°C 22.5°F-5.3°C 67% 6.0 mph SE9.7 kmh SE 10.7 mph17.2 kmh 28.77 in974.3 mb 0.00 in0.0 mm 0.00 in0.0 mm 0.00 in0.0 mm
05:47 AM 29.3°F-1.5°C 22.5°F-5.3°C 67% 4.5 mph S7.2 kmh S 6.0 mph9.7 kmh 28.77 in974.3 mb 0.00 in0.0 mm 0.00 in0.0 mm 0.00 in0.0 mm
05:42 AM 29.3°F-1.5°C 22.5°F-5.3°C 67% 7.6 mph S12.2 kmh S 11.4 mph18.3 kmh 28.77 in974.3 mb 0.00 in0.0 mm 0.00 in0.0 mm 0.00 in0.0 mm
05:37 AM 29.1°F-1.6°C 22.4°F-5.3°C 67% 6.0 mph S9.7 kmh S 6.9 mph11.1 kmh 28.78 in974.6 mb 0.00 in0.0 mm 0.00 in0.0 mm 0.00 in0.0 mm
05:32 AM 28.9°F-1.7°C 21.9°F-5.6°C 66% 5.4 mph S8.7 kmh S 9.2 mph14.8 kmh 28.78 in974.6 mb 0.00 in0.0 mm 0.00 in0.0 mm 0.00 in0.0 mm
05:27 AM 28.9°F-1.7°C 21.9°F-5.6°C 66% 6.0 mph WNW9.7 kmh WNW 8.3 mph13.4 kmh 28.79 in974.9 mb 0.00 in0.0 mm 0.00 in0.0 mm 0.00 in0.0 mm
05:22 AM 28.8°F-1.8°C 21.8°F-5.7°C 66% 6.9 mph S11.1 kmh S 9.8 mph15.8 kmh 28.78 in974.6 mb 0.00 in0.0 mm 0.00 in0.0 mm 0.00 in0.0 mm
05:17 AM 28.6°F-1.9°C 21.6°F-5.8°C 66% 3.1 mph S5.0 kmh S 6.0 mph9.7 kmh 28.78 in974.6 mb 0.00 in0.0 mm 0.00 in0.0 mm 0.00 in0.0 mm
05:12 AM 28.6°F-1.9°C 21.6°F-5.8°C 66% 4.5 mph S7.2 kmh S 7.6 mph12.2 kmh 28.79 in974.9 mb 0.00 in0.0 mm 0.00 in0.0 mm 0.00 in0.0 mm
05:07 AM 28.2°F-2.1°C 20.0°F-6.7°C 61% 3.1 mph NE5.0 kmh NE 5.4 mph8.7 kmh 28.78 in974.6 mb 0.00 in0.0 mm 0.00 in0.0 mm 0.00 in0.0 mm
05:02 AM 28.0°F-2.2°C 19.8°F-6.8°C 61% 3.8 mph SE6.1 kmh SE 5.4 mph8.7 kmh 28.79 in974.9 mb 0.00 in0.0 mm 0.00 in0.0 mm 0.00 in0.0 mm
04:57 AM 27.9°F-2.3°C 19.6°F-6.9°C 61% 6.0 mph S9.7 kmh S 10.7 mph17.2 kmh 28.79 in974.9 mb 0.00 in0.0 mm 0.00 in0.0 mm 0.00 in0.0 mm
04:52 AM 27.9°F-2.3°C 19.4°F-7.0°C 60% 4.5 mph SE7.2 kmh SE 6.0 mph9.7 kmh 28.79 in974.9 mb 0.00 in0.0 mm 0.00 in0.0 mm 0.00 in0.0 mm
04:47 AM 27.9°F-2.3°C 19.4°F-7.0°C 60% 3.8 mph S6.1 kmh S 5.4 mph8.7 kmh 28.79 in974.9 mb 0.00 in0.0 mm 0.00 in0.0 mm 0.00 in0.0 mm
04:42 AM 28.0°F-2.2°C 19.5°F-6.9°C 60% 4.5 mph SW7.2 kmh SW 7.6 mph12.2 kmh 28.79 in974.9 mb 0.00 in0.0 mm 0.00 in0.0 mm 0.00 in0.0 mm
04:37 AM 28.2°F-2.1°C 19.4°F-7.0°C 59% 3.1 mph SE5.0 kmh SE 5.4 mph8.7 kmh 28.80 in975.3 mb 0.00 in0.0 mm 0.00 in0.0 mm 0.00 in0.0 mm
04:32 AM 28.4°F-2.0°C 20.7°F-6.3°C 63% 4.5 mph S7.2 kmh S 6.0 mph9.7 kmh 28.80 in975.3 mb 0.00 in0.0 mm 0.00 in0.0 mm 0.00 in0.0 mm
04:27 AM 28.4°F-2.0°C 20.7°F-6.3°C 63% 4.5 mph S7.2 kmh S 8.3 mph13.4 kmh 28.79 in974.9 mb 0.00 in0.0 mm 0.00 in0.0 mm 0.00 in0.0 mm
04:22 AM 28.6°F-1.9°C 20.8°F-6.2°C 63% 6.0 mph SE9.7 kmh SE 7.6 mph12.2 kmh 28.79 in974.9 mb 0.00 in0.0 mm 0.00 in0.0 mm 0.00 in0.0 mm
04:17 AM 28.6°F-1.9°C 20.8°F-6.2°C 63% 5.4 mph SW8.7 kmh SW 9.2 mph14.8 kmh 28.80 in975.3 mb 0.00 in0.0 mm 0.00 in0.0 mm 0.00 in0.0 mm
04:12 AM 28.4°F-2.0°C 20.4°F-6.4°C 62% 6.0 mph SE9.7 kmh SE 11.4 mph18.3 kmh 28.80 in975.3 mb 0.00 in0.0 mm 0.00 in0.0 mm 0.00 in0.0 mm
04:07 AM 28.4°F-2.0°C 20.4°F-6.4°C 62% 5.4 mph SSW8.7 kmh SSW 10.7 mph17.2 kmh 28.80 in975.3 mb 0.00 in0.0 mm 0.00 in0.0 mm 0.00 in0.0 mm
04:02 AM 28.0°F-2.2°C 19.0°F-7.2°C 58% 4.5 mph 7.2 kmh 6.0 mph9.7 kmh 28.80 in975.3 mb 0.00 in0.0 mm 0.00 in0.0 mm 0.00 in0.0 mm
03:57 AM 28.2°F-2.1°C 19.2°F-7.1°C 58% 3.8 mph SW6.1 kmh SW 5.4 mph8.7 kmh 28.81 in975.6 mb 0.00 in0.0 mm 0.00 in0.0 mm 0.00 in0.0 mm
03:52 AM 28.2°F-2.1°C 18.9°F-7.3°C 57% 3.8 mph WSW6.1 kmh WSW 7.6 mph12.2 kmh 28.80 in975.3 mb 0.00 in0.0 mm 0.00 in0.0 mm 0.00 in0.0 mm
03:47 AM 28.2°F-2.1°C 18.9°F-7.3°C 57% 4.5 mph SE7.2 kmh SE 6.0 mph9.7 kmh 28.82 in976.0 mb 0.00 in0.0 mm 0.00 in0.0 mm 0.00 in0.0 mm
03:42 AM 28.2°F-2.1°C 18.6°F-7.4°C 56% 4.5 mph SE7.2 kmh SE 7.6 mph12.2 kmh 28.82 in976.0 mb 0.00 in0.0 mm 0.00 in0.0 mm 0.00 in0.0 mm
03:37 AM 28.4°F-2.0°C 19.6°F-6.9°C 59% 6.9 mph SE11.1 kmh SE 8.3 mph13.4 kmh 28.82 in976.0 mb 0.00 in0.0 mm 0.00 in0.0 mm 0.00 in0.0 mm
03:32 AM 28.4°F-2.0°C 19.6°F-6.9°C 59% 6.9 mph E11.1 kmh E 11.4 mph18.3 kmh 28.82 in976.0 mb 0.00 in0.0 mm 0.00 in0.0 mm 0.00 in0.0 mm
03:27 AM 28.4°F-2.0°C 19.6°F-6.9°C 59% 6.9 mph S11.1 kmh S 9.8 mph15.8 kmh 28.83 in976.3 mb 0.00 in0.0 mm 0.00 in0.0 mm 0.00 in0.0 mm
03:22 AM 28.2°F-2.1°C 18.0°F-7.8°C 54% 5.4 mph SE8.7 kmh SE 8.3 mph13.4 kmh 28.84 in976.6 mb 0.00 in0.0 mm 0.00 in0.0 mm 0.00 in0.0 mm
03:17 AM 28.2°F-2.1°C 17.7°F-7.9°C 53% 2.2 mph S3.5 kmh S 4.5 mph7.2 kmh 28.84 in976.6 mb 0.00 in0.0 mm 0.00 in0.0 mm 0.00 in0.0 mm
03:12 AM 28.4°F-2.0°C 19.0°F-7.2°C 57% 4.5 mph SE7.2 kmh SE 6.9 mph11.1 kmh 28.84 in976.6 mb 0.00 in0.0 mm 0.00 in0.0 mm 0.00 in0.0 mm
03:07 AM 28.4°F-2.0°C 18.8°F-7.3°C 56% 7.6 mph S12.2 kmh S 11.4 mph18.3 kmh 28.84 in976.6 mb 0.00 in0.0 mm 0.00 in0.0 mm 0.00 in0.0 mm
03:02 AM 28.2°F-2.1°C 17.1°F-8.3°C 51% 3.8 mph SW6.1 kmh SW 10.7 mph17.2 kmh 28.85 in977.0 mb 0.00 in0.0 mm 0.00 in0.0 mm 0.00 in0.0 mm
02:57 AM 28.2°F-2.1°C 17.1°F-8.3°C 51% 6.0 mph E9.7 kmh E 8.3 mph13.4 kmh 28.85 in977.0 mb 0.00 in0.0 mm 0.00 in0.0 mm 0.00 in0.0 mm
02:52 AM 28.2°F-2.1°C 16.8°F-8.4°C 50% 5.4 mph SW8.7 kmh SW 9.8 mph15.8 kmh 28.85 in977.0 mb 0.00 in0.0 mm 0.00 in0.0 mm 0.00 in0.0 mm
02:47 AM 28.4°F-2.0°C 18.2°F-7.7°C 54% 4.5 mph SE7.2 kmh SE 6.9 mph11.1 kmh 28.86 in977.3 mb 0.00 in0.0 mm 0.00 in0.0 mm 0.00 in0.0 mm
02:42 AM 28.4°F-2.0°C 17.9°F-7.8°C 53% 6.0 mph S9.7 kmh S 8.3 mph13.4 kmh 28.86 in977.3 mb 0.00 in0.0 mm 0.00 in0.0 mm 0.00 in0.0 mm
02:37 AM 28.4°F-2.0°C 17.9°F-7.8°C 53% 3.1 mph S5.0 kmh S 6.0 mph9.7 kmh 28.86 in977.3 mb 0.00 in0.0 mm 0.00 in0.0 mm 0.00 in0.0 mm
02:32 AM 28.6°F-1.9°C 17.7°F-7.9°C 52% 3.1 mph E5.0 kmh E 4.5 mph7.2 kmh 28.86 in977.3 mb 0.00 in0.0 mm 0.00 in0.0 mm 0.00 in0.0 mm
02:27 AM 28.8°F-1.8°C 17.9°F-7.8°C 52% 3.1 mph E5.0 kmh E 5.4 mph8.7 kmh 28.87 in977.7 mb 0.00 in0.0 mm 0.00 in0.0 mm 0.00 in0.0 mm
02:22 AM 28.9°F-1.7°C 18.1°F-7.7°C 52% 4.5 mph SE7.2 kmh SE 6.0 mph9.7 kmh 28.87 in977.7 mb 0.00 in0.0 mm 0.00 in0.0 mm 0.00 in0.0 mm
02:17 AM 28.9°F-1.7°C 18.1°F-7.7°C 52% 4.5 mph SE7.2 kmh SE 6.0 mph9.7 kmh 28.87 in977.7 mb 0.00 in0.0 mm 0.00 in0.0 mm 0.00 in0.0 mm
02:12 AM 29.1°F-1.6°C 17.9°F-7.8°C 51% 6.9 mph E11.1 kmh E 9.2 mph14.8 kmh 28.87 in977.7 mb 0.00 in0.0 mm 0.00 in0.0 mm 0.00 in0.0 mm
02:07 AM 29.1°F-1.6°C 17.6°F-8.0°C 50% 3.8 mph S6.1 kmh S 5.4 mph8.7 kmh 28.87 in977.7 mb 0.00 in0.0 mm 0.00 in0.0 mm 0.00 in0.0 mm
02:02 AM 29.3°F-1.5°C 17.5°F-8.1°C 49% 5.4 mph SW8.7 kmh SW 6.0 mph9.7 kmh 28.88 in978.0 mb 0.00 in0.0 mm 0.00 in0.0 mm 0.00 in0.0 mm
01:57 AM 29.3°F-1.5°C 17.5°F-8.1°C 49% 8.3 mph S13.4 kmh S 10.7 mph17.2 kmh 28.88 in978.0 mb 0.00 in0.0 mm 0.00 in0.0 mm 0.00 in0.0 mm
01:52 AM 29.3°F-1.5°C 17.1°F-8.3°C 48% 3.1 mph SW5.0 kmh SW 5.4 mph8.7 kmh 28.88 in978.0 mb 0.00 in0.0 mm 0.00 in0.0 mm 0.00 in0.0 mm
01:47 AM 29.3°F-1.5°C 17.1°F-8.3°C 48% 3.8 mph SW6.1 kmh SW 6.0 mph9.7 kmh 28.88 in978.0 mb 0.00 in0.0 mm 0.00 in0.0 mm 0.00 in0.0 mm
01:42 AM 29.3°F-1.5°C 16.8°F-8.4°C 47% 3.8 mph S6.1 kmh S 6.0 mph9.7 kmh 28.89 in978.3 mb 0.00 in0.0 mm 0.00 in0.0 mm 0.00 in0.0 mm
01:37 AM 29.3°F-1.5°C 16.8°F-8.4°C 47% 4.5 mph SE7.2 kmh SE 6.0 mph9.7 kmh 28.89 in978.3 mb 0.00 in0.0 mm 0.00 in0.0 mm 0.00 in0.0 mm
01:32 AM 29.3°F-1.5°C 16.5°F-8.6°C 46% 3.8 mph SE6.1 kmh SE 4.5 mph7.2 kmh 28.89 in978.3 mb 0.00 in0.0 mm 0.00 in0.0 mm 0.00 in0.0 mm
01:27 AM 29.7°F-1.3°C 16.8°F-8.4°C 46% 6.9 mph SE11.1 kmh SE 8.3 mph13.4 kmh 28.89 in978.3 mb 0.00 in0.0 mm 0.00 in0.0 mm 0.00 in0.0 mm
01:22 AM 29.7°F-1.3°C 16.4°F-8.7°C 45% 4.5 mph S7.2 kmh S 9.2 mph14.8 kmh 28.89 in978.3 mb 0.00 in0.0 mm 0.00 in0.0 mm 0.00 in0.0 mm
01:17 AM 29.8°F-1.2°C 16.6°F-8.6°C 45% 6.9 mph SE11.1 kmh SE 8.3 mph13.4 kmh 28.90 in978.7 mb 0.00 in0.0 mm 0.00 in0.0 mm 0.00 in0.0 mm
01:12 AM 30.0°F-1.1°C 16.8°F-8.4°C 45% 4.5 mph S7.2 kmh S 9.2 mph14.8 kmh 28.90 in978.7 mb 0.00 in0.0 mm 0.00 in0.0 mm 0.00 in0.0 mm
01:07 AM 30.0°F-1.1°C 16.4°F-8.7°C 44% 7.6 mph S12.2 kmh S 9.8 mph15.8 kmh 28.90 in978.7 mb 0.00 in0.0 mm 0.00 in0.0 mm 0.00 in0.0 mm
01:02 AM 30.2°F-1.0°C 16.2°F-8.8°C 43% 3.8 mph SE6.1 kmh SE 6.0 mph9.7 kmh 28.90 in978.7 mb 0.00 in0.0 mm 0.00 in0.0 mm 0.00 in0.0 mm
12:57 AM 30.2°F-1.0°C 16.2°F-8.8°C 43% 9.2 mph SW14.8 kmh SW 13.0 mph20.9 kmh 28.90 in978.7 mb 0.00 in0.0 mm 0.00 in0.0 mm 0.00 in0.0 mm
12:52 AM 30.4°F-0.9°C 16.4°F-8.7°C 43% 6.0 mph SE9.7 kmh SE 9.2 mph14.8 kmh 28.90 in978.7 mb 0.00 in0.0 mm 0.00 in0.0 mm 0.00 in0.0 mm
12:47 AM 30.6°F-0.8°C 16.5°F-8.6°C 43% 6.0 mph S9.7 kmh S 8.3 mph13.4 kmh 28.90 in978.7 mb 0.00 in0.0 mm 0.00 in0.0 mm 0.00 in0.0 mm
12:42 AM 30.7°F-0.7°C 16.3°F-8.7°C 42% 6.0 mph S9.7 kmh S 9.8 mph15.8 kmh 28.91 in979.0 mb 0.00 in0.0 mm 0.00 in0.0 mm 0.00 in0.0 mm
12:37 AM 30.7°F-0.7°C 16.3°F-8.7°C 42% 6.0 mph E9.7 kmh E 8.3 mph13.4 kmh 28.91 in979.0 mb 0.00 in0.0 mm 0.00 in0.0 mm 0.00 in0.0 mm
12:32 AM 30.7°F-0.7°C 16.3°F-8.7°C 42% 4.5 mph SE7.2 kmh SE 7.6 mph12.2 kmh 28.92 in979.3 mb 0.00 in0.0 mm 0.00 in0.0 mm 0.00 in0.0 mm
12:27 AM 30.6°F-0.8°C 16.2°F-8.8°C 42% 5.4 mph S8.7 kmh S 8.3 mph13.4 kmh 28.92 in979.3 mb 0.00 in0.0 mm 0.00 in0.0 mm 0.00 in0.0 mm
12:22 AM 30.6°F-0.8°C 16.2°F-8.8°C 42% 5.4 mph S8.7 kmh S 6.9 mph11.1 kmh 28.92 in979.3 mb 0.00 in0.0 mm 0.00 in0.0 mm 0.00 in0.0 mm
12:17 AM 30.6°F-0.8°C 16.2°F-8.8°C 42% 4.5 mph S7.2 kmh S 9.2 mph14.8 kmh 28.92 in979.3 mb 0.00 in0.0 mm 0.00 in0.0 mm 0.00 in0.0 mm
12:12 AM 30.4°F-0.9°C 16.0°F-8.9°C 42% 7.6 mph SSE12.2 kmh SSE 9.8 mph15.8 kmh 28.93 in979.7 mb 0.00 in0.0 mm 0.00 in0.0 mm 0.00 in0.0 mm
12:07 AM 30.4°F-0.9°C 16.0°F-8.9°C 42% 6.0 mph SW9.7 kmh SW 9.2 mph14.8 kmh 28.93 in979.7 mb 0.00 in0.0 mm 0.00 in0.0 mm 0.00 in0.0 mm
12:02 AM 30.2°F-1.0°C 15.8°F-9.0°C 42% 6.0 mph S9.7 kmh S 9.8 mph15.8 kmh 28.93 in979.7 mb 0.00 in0.0 mm 0.00 in0.0 mm 0.00 in0.0 mm